sensor_id;sensor_type;location;lat;lon;timestamp;P1;durP1;ratioP1;P2;durP2;ratioP2
37131;SDS011;23035;50.032;21.978;2022-12-18T00:03:09;100.40;;;34.10;;
37131;SDS011;23035;50.032;21.978;2022-12-18T00:08:16;89.95;;;30.33;;
37131;SDS011;23035;50.032;21.978;2022-12-18T00:13:21;97.90;;;35.80;;
37131;SDS011;23035;50.032;21.978;2022-12-18T00:18:25;81.90;;;30.73;;
37131;SDS011;23035;50.032;21.978;2022-12-18T00:23:31;100.30;;;34.38;;
37131;SDS011;23035;50.032;21.978;2022-12-18T00:28:39;99.80;;;37.03;;
37131;SDS011;23035;50.032;21.978;2022-12-18T00:33:44;104.25;;;35.60;;
37131;SDS011;23035;50.032;21.978;2022-12-18T00:38:55;98.32;;;33.67;;
37131;SDS011;23035;50.032;21.978;2022-12-18T00:44:00;93.70;;;32.25;;
37131;SDS011;23035;50.032;21.978;2022-12-18T00:49:04;94.82;;;32.15;;
37131;SDS011;23035;50.032;21.978;2022-12-18T00:54:10;96.95;;;32.58;;
37131;SDS011;23035;50.032;21.978;2022-12-18T00:59:14;87.80;;;30.42;;
37131;SDS011;23035;50.032;21.978;2022-12-18T01:04:19;79.93;;;30.13;;
37131;SDS011;23035;50.032;21.978;2022-12-18T01:09:24;70.03;;;27.30;;
37131;SDS011;23035;50.032;21.978;2022-12-18T01:19:34;64.95;;;23.88;;
37131;SDS011;23035;50.032;21.978;2022-12-18T01:24:40;69.17;;;26.23;;
37131;SDS011;23035;50.032;21.978;2022-12-18T01:29:45;60.67;;;25.10;;
37131;SDS011;23035;50.032;21.978;2022-12-18T01:34:50;52.33;;;20.30;;
37131;SDS011;23035;50.032;21.978;2022-12-18T01:39:56;45.87;;;18.47;;
37131;SDS011;23035;50.032;21.978;2022-12-18T01:45:05;48.25;;;19.42;;
37131;SDS011;23035;50.032;21.978;2022-12-18T01:50:27;53.40;;;19.00;;
37131;SDS011;23035;50.032;21.978;2022-12-18T01:55:37;52.92;;;20.10;;
37131;SDS011;23035;50.032;21.978;2022-12-18T02:00:44;57.22;;;19.88;;
37131;SDS011;23035;50.032;21.978;2022-12-18T02:05:51;57.78;;;20.90;;
37131;SDS011;23035;50.032;21.978;2022-12-18T02:11:07;64.33;;;20.33;;
37131;SDS011;23035;50.032;21.978;2022-12-18T02:16:18;63.15;;;21.40;;
37131;SDS011;23035;50.032;21.978;2022-12-18T02:21:30;54.47;;;18.02;;
37131;SDS011;23035;50.032;21.978;2022-12-18T02:26:43;52.13;;;20.52;;
37131;SDS011;23035;50.032;21.978;2022-12-18T02:31:57;52.20;;;19.80;;
37131;SDS011;23035;50.032;21.978;2022-12-18T02:37:04;47.58;;;17.33;;
37131;SDS011;23035;50.032;21.978;2022-12-18T02:42:14;48.00;;;17.02;;
37131;SDS011;23035;50.032;21.978;2022-12-18T02:47:21;50.30;;;18.65;;
37131;SDS011;23035;50.032;21.978;2022-12-18T02:52:29;47.75;;;17.55;;
37131;SDS011;23035;50.032;21.978;2022-12-18T02:57:49;41.35;;;15.68;;
37131;SDS011;23035;50.032;21.978;2022-12-18T03:03:02;44.65;;;17.73;;
37131;SDS011;23035;50.032;21.978;2022-12-18T03:08:14;42.13;;;15.75;;
37131;SDS011;23035;50.032;21.978;2022-12-18T03:13:26;46.20;;;15.85;;
37131;SDS011;23035;50.032;21.978;2022-12-18T03:18:37;43.15;;;15.75;;
37131;SDS011;23035;50.032;21.978;2022-12-18T03:23:48;41.97;;;14.82;;
37131;SDS011;23035;50.032;21.978;2022-12-18T03:29:02;40.85;;;15.30;;
37131;SDS011;23035;50.032;21.978;2022-12-18T03:34:12;43.28;;;14.75;;
37131;SDS011;23035;50.032;21.978;2022-12-18T03:39:21;35.05;;;13.82;;
37131;SDS011;23035;50.032;21.978;2022-12-18T03:44:34;44.80;;;17.25;;
37131;SDS011;23035;50.032;21.978;2022-12-18T03:49:46;38.08;;;14.25;;
37131;SDS011;23035;50.032;21.978;2022-12-18T03:54:56;32.90;;;13.40;;
37131;SDS011;23035;50.032;21.978;2022-12-18T04:00:06;42.58;;;17.15;;
37131;SDS011;23035;50.032;21.978;2022-12-18T04:05:15;39.60;;;15.27;;
37131;SDS011;23035;50.032;21.978;2022-12-18T04:10:21;29.45;;;13.07;;
37131;SDS011;23035;50.032;21.978;2022-12-18T04:15:28;30.08;;;12.15;;
37131;SDS011;23035;50.032;21.978;2022-12-18T04:20:33;31.20;;;12.93;;
37131;SDS011;23035;50.032;21.978;2022-12-18T04:25:38;30.27;;;12.05;;
37131;SDS011;23035;50.032;21.978;2022-12-18T04:30:48;36.70;;;13.57;;
37131;SDS011;23035;50.032;21.978;2022-12-18T04:35:54;36.05;;;13.25;;
37131;SDS011;23035;50.032;21.978;2022-12-18T04:40:59;34.22;;;13.50;;
37131;SDS011;23035;50.032;21.978;2022-12-18T04:46:06;30.92;;;13.55;;
37131;SDS011;23035;50.032;21.978;2022-12-18T04:51:12;35.40;;;13.07;;
37131;SDS011;23035;50.032;21.978;2022-12-18T04:56:25;34.20;;;14.20;;
37131;SDS011;23035;50.032;21.978;2022-12-18T05:01:31;37.92;;;14.48;;
37131;SDS011;23035;50.032;21.978;2022-12-18T05:06:38;31.85;;;13.18;;
37131;SDS011;23035;50.032;21.978;2022-12-18T05:11:43;30.63;;;12.75;;
37131;SDS011;23035;50.032;21.978;2022-12-18T05:16:49;27.93;;;12.23;;
37131;SDS011;23035;50.032;21.978;2022-12-18T05:26:57;30.65;;;13.73;;
37131;SDS011;23035;50.032;21.978;2022-12-18T05:32:02;32.53;;;13.73;;
37131;SDS011;23035;50.032;21.978;2022-12-18T05:37:07;34.00;;;13.20;;
37131;SDS011;23035;50.032;21.978;2022-12-18T05:42:11;31.92;;;13.00;;
37131;SDS011;23035;50.032;21.978;2022-12-18T05:47:16;36.00;;;14.20;;
37131;SDS011;23035;50.032;21.978;2022-12-18T05:52:21;31.95;;;12.68;;
37131;SDS011;23035;50.032;21.978;2022-12-18T05:57:25;32.50;;;11.32;;
37131;SDS011;23035;50.032;21.978;2022-12-18T06:02:30;28.05;;;12.52;;
37131;SDS011;23035;50.032;21.978;2022-12-18T06:07:35;28.67;;;12.20;;
37131;SDS011;23035;50.032;21.978;2022-12-18T06:12:39;29.00;;;11.77;;
37131;SDS011;23035;50.032;21.978;2022-12-18T06:17:45;34.22;;;12.95;;
37131;SDS011;23035;50.032;21.978;2022-12-18T06:27:53;29.83;;;13.00;;
37131;SDS011;23035;50.032;21.978;2022-12-18T06:32:59;33.55;;;13.88;;
37131;SDS011;23035;50.032;21.978;2022-12-18T06:38:05;30.58;;;13.00;;
37131;SDS011;23035;50.032;21.978;2022-12-18T06:43:09;42.67;;;15.63;;
37131;SDS011;23035;50.032;21.978;2022-12-18T06:48:15;31.70;;;14.40;;
37131;SDS011;23035;50.032;21.978;2022-12-18T06:53:22;37.25;;;15.73;;
37131;SDS011;23035;50.032;21.978;2022-12-18T06:58:27;39.97;;;17.30;;
37131;SDS011;23035;50.032;21.978;2022-12-18T07:03:33;35.55;;;16.15;;
37131;SDS011;23035;50.032;21.978;2022-12-18T07:08:41;37.90;;;16.45;;
37131;SDS011;23035;50.032;21.978;2022-12-18T07:13:45;40.03;;;16.45;;
37131;SDS011;23035;50.032;21.978;2022-12-18T07:18:51;47.33;;;17.30;;
37131;SDS011;23035;50.032;21.978;2022-12-18T07:23:55;37.17;;;15.35;;
37131;SDS011;23035;50.032;21.978;2022-12-18T07:29:00;34.78;;;15.30;;
37131;SDS011;23035;50.032;21.978;2022-12-18T07:34:09;44.25;;;18.20;;
37131;SDS011;23035;50.032;21.978;2022-12-18T07:39:14;44.05;;;17.65;;
37131;SDS011;23035;50.032;21.978;2022-12-18T07:44:22;37.67;;;14.10;;
37131;SDS011;23035;50.032;21.978;2022-12-18T07:49:27;49.15;;;18.23;;
37131;SDS011;23035;50.032;21.978;2022-12-18T07:59:36;50.47;;;18.95;;
37131;SDS011;23035;50.032;21.978;2022-12-18T08:04:42;49.22;;;19.38;;
37131;SDS011;23035;50.032;21.978;2022-12-18T08:09:46;45.95;;;18.38;;
37131;SDS011;23035;50.032;21.978;2022-12-18T08:14:50;48.33;;;17.60;;
37131;SDS011;23035;50.032;21.978;2022-12-18T08:19:56;44.40;;;18.08;;
37131;SDS011;23035;50.032;21.978;2022-12-18T08:25:00;51.65;;;20.45;;
37131;SDS011;23035;50.032;21.978;2022-12-18T08:30:07;45.75;;;18.80;;
37131;SDS011;23035;50.032;21.978;2022-12-18T08:35:13;44.08;;;17.35;;
37131;SDS011;23035;50.032;21.978;2022-12-18T08:40:20;43.28;;;17.98;;
37131;SDS011;23035;50.032;21.978;2022-12-18T08:45:24;46.90;;;18.27;;
37131;SDS011;23035;50.032;21.978;2022-12-18T08:50:30;39.72;;;17.67;;
37131;SDS011;23035;50.032;21.978;2022-12-18T08:55:34;41.95;;;16.25;;
37131;SDS011;23035;50.032;21.978;2022-12-18T09:00:39;45.65;;;18.77;;
37131;SDS011;23035;50.032;21.978;2022-12-18T09:05:45;44.35;;;19.35;;
37131;SDS011;23035;50.032;21.978;2022-12-18T09:10:49;60.13;;;24.77;;
37131;SDS011;23035;50.032;21.978;2022-12-18T09:15:54;60.97;;;22.97;;
37131;SDS011;23035;50.032;21.978;2022-12-18T09:21:06;79.28;;;30.15;;
37131;SDS011;23035;50.032;21.978;2022-12-18T09:26:11;146.65;;;41.13;;
37131;SDS011;23035;50.032;21.978;2022-12-18T09:31:16;83.47;;;32.08;;
37131;SDS011;23035;50.032;21.978;2022-12-18T09:36:22;48.50;;;20.70;;
37131;SDS011;23035;50.032;21.978;2022-12-18T09:41:39;47.35;;;18.08;;
37131;SDS011;23035;50.032;21.978;2022-12-18T09:46:47;50.28;;;18.85;;
37131;SDS011;23035;50.032;21.978;2022-12-18T09:51:58;48.78;;;20.58;;
37131;SDS011;23035;50.032;21.978;2022-12-18T09:57:10;62.50;;;20.65;;
37131;SDS011;23035;50.032;21.978;2022-12-18T10:02:17;74.10;;;25.67;;
37131;SDS011;23035;50.032;21.978;2022-12-18T10:07:27;38.17;;;14.20;;
37131;SDS011;23035;50.032;21.978;2022-12-18T10:12:41;38.97;;;18.25;;
37131;SDS011;23035;50.032;21.978;2022-12-18T10:17:55;38.30;;;16.08;;
37131;SDS011;23035;50.032;21.978;2022-12-18T10:23:11;53.38;;;19.88;;
37131;SDS011;23035;50.032;21.978;2022-12-18T10:28:22;41.50;;;17.98;;
37131;SDS011;23035;50.032;21.978;2022-12-18T10:33:28;40.08;;;16.40;;
37131;SDS011;23035;50.032;21.978;2022-12-18T10:38:36;52.75;;;20.88;;
37131;SDS011;23035;50.032;21.978;2022-12-18T10:43:41;36.78;;;16.67;;
37131;SDS011;23035;50.032;21.978;2022-12-18T10:48:51;39.17;;;16.35;;
37131;SDS011;23035;50.032;21.978;2022-12-18T10:53:59;36.75;;;13.93;;
37131;SDS011;23035;50.032;21.978;2022-12-18T10:59:11;35.72;;;14.65;;
37131;SDS011;23035;50.032;21.978;2022-12-18T11:04:18;43.47;;;15.80;;
37131;SDS011;23035;50.032;21.978;2022-12-18T11:09:25;54.60;;;17.83;;
37131;SDS011;23035;50.032;21.978;2022-12-18T11:14:41;34.92;;;15.80;;
37131;SDS011;23035;50.032;21.978;2022-12-18T11:19:52;38.45;;;16.52;;
37131;SDS011;23035;50.032;21.978;2022-12-18T11:24:59;48.95;;;17.27;;
37131;SDS011;23035;50.032;21.978;2022-12-18T11:30:26;37.83;;;14.57;;
37131;SDS011;23035;50.032;21.978;2022-12-18T11:35:37;50.00;;;17.92;;
37131;SDS011;23035;50.032;21.978;2022-12-18T11:40:53;48.92;;;19.20;;
37131;SDS011;23035;50.032;21.978;2022-12-18T11:46:02;44.63;;;18.45;;
37131;SDS011;23035;50.032;21.978;2022-12-18T11:51:11;52.92;;;20.98;;
37131;SDS011;23035;50.032;21.978;2022-12-18T11:56:26;40.78;;;18.60;;
37131;SDS011;23035;50.032;21.978;2022-12-18T12:01:37;37.70;;;17.33;;
37131;SDS011;23035;50.032;21.978;2022-12-18T12:06:50;43.25;;;17.00;;
37131;SDS011;23035;50.032;21.978;2022-12-18T12:12:12;42.72;;;17.10;;
37131;SDS011;23035;50.032;21.978;2022-12-18T12:17:30;38.80;;;16.00;;
37131;SDS011;23035;50.032;21.978;2022-12-18T12:22:42;39.75;;;15.68;;
37131;SDS011;23035;50.032;21.978;2022-12-18T12:33:49;45.97;;;19.17;;
37131;SDS011;23035;50.032;21.978;2022-12-18T12:39:05;49.40;;;19.38;;
37131;SDS011;23035;50.032;21.978;2022-12-18T12:44:15;43.10;;;17.92;;
37131;SDS011;23035;50.032;21.978;2022-12-18T12:49:27;35.90;;;14.43;;
37131;SDS011;23035;50.032;21.978;2022-12-18T12:54:42;38.55;;;15.77;;
37131;SDS011;23035;50.032;21.978;2022-12-18T12:59:50;39.25;;;15.30;;
37131;SDS011;23035;50.032;21.978;2022-12-18T13:05:03;31.13;;;13.93;;
37131;SDS011;23035;50.032;21.978;2022-12-18T13:10:24;36.08;;;15.18;;
37131;SDS011;23035;50.032;21.978;2022-12-18T13:15:37;41.13;;;17.10;;
37131;SDS011;23035;50.032;21.978;2022-12-18T13:20:49;37.83;;;17.50;;
37131;SDS011;23035;50.032;21.978;2022-12-18T13:37:41;55.85;;;21.13;;
37131;SDS011;23035;50.032;21.978;2022-12-18T13:42:47;43.97;;;19.48;;
37131;SDS011;23035;50.032;21.978;2022-12-18T13:48:14;40.35;;;19.05;;
37131;SDS011;23035;50.032;21.978;2022-12-18T13:53:26;45.42;;;18.35;;
37131;SDS011;23035;50.032;21.978;2022-12-18T13:58:33;51.15;;;19.48;;
37131;SDS011;23035;50.032;21.978;2022-12-18T14:03:37;41.92;;;17.90;;
37131;SDS011;23035;50.032;21.978;2022-12-18T14:08:44;55.47;;;23.08;;
37131;SDS011;23035;50.032;21.978;2022-12-18T14:13:50;34.60;;;15.73;;
37131;SDS011;23035;50.032;21.978;2022-12-18T14:18:56;41.30;;;16.60;;
37131;SDS011;23035;50.032;21.978;2022-12-18T14:24:17;41.60;;;17.17;;
37131;SDS011;23035;50.032;21.978;2022-12-18T14:29:26;35.63;;;14.75;;
37131;SDS011;23035;50.032;21.978;2022-12-18T14:34:31;43.55;;;16.48;;
37131;SDS011;23035;50.032;21.978;2022-12-18T14:39:36;49.80;;;19.48;;
37131;SDS011;23035;50.032;21.978;2022-12-18T14:44:40;50.92;;;20.60;;
37131;SDS011;23035;50.032;21.978;2022-12-18T14:50:11;45.75;;;18.50;;
37131;SDS011;23035;50.032;21.978;2022-12-18T14:55:19;42.13;;;17.55;;
37131;SDS011;23035;50.032;21.978;2022-12-18T15:00:25;53.85;;;21.73;;
37131;SDS011;23035;50.032;21.978;2022-12-18T15:05:30;56.58;;;23.05;;
37131;SDS011;23035;50.032;21.978;2022-12-18T15:10:45;59.25;;;23.30;;
37131;SDS011;23035;50.032;21.978;2022-12-18T15:16:20;71.82;;;28.67;;
37131;SDS011;23035;50.032;21.978;2022-12-18T15:21:25;58.25;;;23.98;;
37131;SDS011;23035;50.032;21.978;2022-12-18T15:26:34;45.17;;;20.23;;
37131;SDS011;23035;50.032;21.978;2022-12-18T15:31:42;54.45;;;22.98;;
37131;SDS011;23035;50.032;21.978;2022-12-18T15:36:49;50.65;;;23.90;;
37131;SDS011;23035;50.032;21.978;2022-12-18T15:41:54;59.20;;;27.10;;
37131;SDS011;23035;50.032;21.978;2022-12-18T15:47:17;49.30;;;21.00;;
37131;SDS011;23035;50.032;21.978;2022-12-18T15:52:21;57.67;;;24.45;;
37131;SDS011;23035;50.032;21.978;2022-12-18T15:57:28;46.78;;;21.88;;
37131;SDS011;23035;50.032;21.978;2022-12-18T16:02:33;44.33;;;19.35;;
37131;SDS011;23035;50.032;21.978;2022-12-18T16:07:38;68.97;;;32.65;;
37131;SDS011;23035;50.032;21.978;2022-12-18T16:12:42;59.60;;;28.27;;
37131;SDS011;23035;50.032;21.978;2022-12-18T16:17:48;72.15;;;31.90;;
37131;SDS011;23035;50.032;21.978;2022-12-18T16:27:56;43.47;;;18.00;;
37131;SDS011;23035;50.032;21.978;2022-12-18T16:33:02;46.63;;;19.13;;
37131;SDS011;23035;50.032;21.978;2022-12-18T16:38:08;39.70;;;15.95;;
37131;SDS011;23035;50.032;21.978;2022-12-18T16:43:12;39.95;;;16.75;;
37131;SDS011;23035;50.032;21.978;2022-12-18T16:48:18;37.03;;;15.50;;
37131;SDS011;23035;50.032;21.978;2022-12-18T16:53:22;36.30;;;16.30;;
37131;SDS011;23035;50.032;21.978;2022-12-18T16:58:26;48.90;;;20.58;;
37131;SDS011;23035;50.032;21.978;2022-12-18T17:03:32;57.97;;;23.88;;
37131;SDS011;23035;50.032;21.978;2022-12-18T17:08:36;79.22;;;32.92;;
37131;SDS011;23035;50.032;21.978;2022-12-18T17:13:41;41.03;;;18.75;;
37131;SDS011;23035;50.032;21.978;2022-12-18T17:18:46;49.40;;;20.00;;
37131;SDS011;23035;50.032;21.978;2022-12-18T17:23:51;62.30;;;26.42;;
37131;SDS011;23035;50.032;21.978;2022-12-18T17:28:56;70.22;;;31.02;;
37131;SDS011;23035;50.032;21.978;2022-12-18T17:34:02;45.50;;;20.63;;
37131;SDS011;23035;50.032;21.978;2022-12-18T17:39:07;41.08;;;18.55;;
37131;SDS011;23035;50.032;21.978;2022-12-18T17:44:11;41.55;;;18.65;;
37131;SDS011;23035;50.032;21.978;2022-12-18T17:49:17;45.55;;;18.42;;
37131;SDS011;23035;50.032;21.978;2022-12-18T17:54:21;68.38;;;32.28;;
37131;SDS011;23035;50.032;21.978;2022-12-18T17:59:25;112.32;;;50.97;;
37131;SDS011;23035;50.032;21.978;2022-12-18T18:04:31;45.05;;;19.65;;
37131;SDS011;23035;50.032;21.978;2022-12-18T18:09:35;74.07;;;31.08;;
37131;SDS011;23035;50.032;21.978;2022-12-18T18:14:39;82.28;;;39.08;;
37131;SDS011;23035;50.032;21.978;2022-12-18T18:19:46;43.78;;;20.42;;
37131;SDS011;23035;50.032;21.978;2022-12-18T18:24:51;42.65;;;18.75;;
37131;SDS011;23035;50.032;21.978;2022-12-18T18:29:55;55.35;;;23.77;;
37131;SDS011;23035;50.032;21.978;2022-12-18T18:35:01;55.70;;;23.05;;
37131;SDS011;23035;50.032;21.978;2022-12-18T18:40:05;41.10;;;17.00;;
37131;SDS011;23035;50.032;21.978;2022-12-18T18:45:10;41.45;;;17.17;;
37131;SDS011;23035;50.032;21.978;2022-12-18T18:50:16;38.97;;;17.45;;
37131;SDS011;23035;50.032;21.978;2022-12-18T18:55:20;51.33;;;20.73;;
37131;SDS011;23035;50.032;21.978;2022-12-18T19:00:27;95.88;;;35.50;;
37131;SDS011;23035;50.032;21.978;2022-12-18T19:05:33;41.30;;;18.25;;
37131;SDS011;23035;50.032;21.978;2022-12-18T19:15:43;46.72;;;21.65;;
37131;SDS011;23035;50.032;21.978;2022-12-18T19:20:57;41.88;;;19.95;;
37131;SDS011;23035;50.032;21.978;2022-12-18T19:26:03;45.08;;;19.73;;
37131;SDS011;23035;50.032;21.978;2022-12-18T19:31:28;39.60;;;17.70;;
37131;SDS011;23035;50.032;21.978;2022-12-18T19:36:39;48.13;;;20.02;;
37131;SDS011;23035;50.032;21.978;2022-12-18T19:41:44;48.92;;;21.73;;
37131;SDS011;23035;50.032;21.978;2022-12-18T19:46:52;52.58;;;24.20;;
37131;SDS011;23035;50.032;21.978;2022-12-18T19:51:58;51.58;;;22.77;;
37131;SDS011;23035;50.032;21.978;2022-12-18T19:57:06;49.35;;;22.23;;
37131;SDS011;23035;50.032;21.978;2022-12-18T20:02:13;54.03;;;21.98;;
37131;SDS011;23035;50.032;21.978;2022-12-18T20:07:19;50.10;;;21.87;;
37131;SDS011;23035;50.032;21.978;2022-12-18T20:12:23;47.20;;;22.08;;
37131;SDS011;23035;50.032;21.978;2022-12-18T20:17:28;47.33;;;21.08;;
37131;SDS011;23035;50.032;21.978;2022-12-18T20:22:34;51.25;;;21.77;;
37131;SDS011;23035;50.032;21.978;2022-12-18T20:32:42;40.63;;;17.40;;
37131;SDS011;23035;50.032;21.978;2022-12-18T20:37:48;45.25;;;19.80;;
37131;SDS011;23035;50.032;21.978;2022-12-18T20:42:53;42.58;;;17.98;;
37131;SDS011;23035;50.032;21.978;2022-12-18T20:47:57;41.10;;;17.60;;
37131;SDS011;23035;50.032;21.978;2022-12-18T20:53:04;48.92;;;18.98;;
37131;SDS011;23035;50.032;21.978;2022-12-18T21:03:12;53.22;;;21.20;;
37131;SDS011;23035;50.032;21.978;2022-12-18T21:08:20;41.90;;;18.92;;
37131;SDS011;23035;50.032;21.978;2022-12-18T21:13:27;44.72;;;19.33;;
37131;SDS011;23035;50.032;21.978;2022-12-18T21:18:33;45.45;;;20.02;;
37131;SDS011;23035;50.032;21.978;2022-12-18T21:29:27;39.70;;;17.10;;
37131;SDS011;23035;50.032;21.978;2022-12-18T21:34:55;47.88;;;19.33;;
37131;SDS011;23035;50.032;21.978;2022-12-18T21:40:16;47.72;;;21.25;;
37131;SDS011;23035;50.032;21.978;2022-12-18T21:45:26;48.10;;;20.63;;
37131;SDS011;23035;50.032;21.978;2022-12-18T21:50:41;37.70;;;16.33;;
37131;SDS011;23035;50.032;21.978;2022-12-18T22:01:57;50.70;;;21.10;;
37131;SDS011;23035;50.032;21.978;2022-12-18T22:07:30;56.38;;;24.80;;
37131;SDS011;23035;50.032;21.978;2022-12-18T22:13:18;60.40;;;25.45;;
37131;SDS011;23035;50.032;21.978;2022-12-18T22:18:38;50.38;;;21.05;;
37131;SDS011;23035;50.032;21.978;2022-12-18T22:24:02;50.53;;;19.73;;
37131;SDS011;23035;50.032;21.978;2022-12-18T22:29:18;49.05;;;19.50;;
37131;SDS011;23035;50.032;21.978;2022-12-18T22:34:43;50.95;;;21.10;;
37131;SDS011;23035;50.032;21.978;2022-12-18T22:39:50;54.50;;;21.27;;
37131;SDS011;23035;50.032;21.978;2022-12-18T22:45:10;58.03;;;22.20;;
37131;SDS011;23035;50.032;21.978;2022-12-18T22:50:23;61.47;;;24.23;;
